sensor_id;sensor_type;location;lat;lon;timestamp;P1;durP1;ratioP1;P2;durP2;ratioP2
54384;SDS011;40284;52.878;5.998;2023-03-23T00:00:58;19.05;;;12.02;;
54384;SDS011;40284;52.878;5.998;2023-03-23T00:03:24;14.48;;;10.90;;
54384;SDS011;40284;52.878;5.998;2023-03-23T00:05:53;13.25;;;11.35;;
54384;SDS011;40284;52.878;5.998;2023-03-23T00:08:27;16.02;;;11.10;;
54384;SDS011;40284;52.878;5.998;2023-03-23T00:10:53;14.32;;;11.50;;
54384;SDS011;40284;52.878;5.998;2023-03-23T00:13:25;18.10;;;13.30;;
54384;SDS011;40284;52.878;5.998;2023-03-23T00:15:51;16.95;;;12.18;;
54384;SDS011;40284;52.878;5.998;2023-03-23T00:18:18;18.30;;;12.50;;
54384;SDS011;40284;52.878;5.998;2023-03-23T00:20:48;26.77;;;13.27;;
54384;SDS011;40284;52.878;5.998;2023-03-23T00:23:15;19.77;;;11.93;;
54384;SDS011;40284;52.878;5.998;2023-03-23T00:25:44;9.05;;;6.93;;
54384;SDS011;40284;52.878;5.998;2023-03-23T00:28:10;6.90;;;4.25;;
54384;SDS011;40284;52.878;5.998;2023-03-23T00:30:38;6.18;;;4.60;;
54384;SDS011;40284;52.878;5.998;2023-03-23T00:33:04;8.60;;;6.03;;
54384;SDS011;40284;52.878;5.998;2023-03-23T00:35:30;12.68;;;8.93;;
54384;SDS011;40284;52.878;5.998;2023-03-23T00:37:56;19.58;;;10.07;;
54384;SDS011;40284;52.878;5.998;2023-03-23T00:40:24;14.75;;;9.93;;
54384;SDS011;40284;52.878;5.998;2023-03-23T00:42:51;13.75;;;10.90;;
54384;SDS011;40284;52.878;5.998;2023-03-23T00:45:17;14.95;;;11.13;;
54384;SDS011;40284;52.878;5.998;2023-03-23T00:47:43;14.85;;;11.30;;
54384;SDS011;40284;52.878;5.998;2023-03-23T00:50:16;15.90;;;10.32;;
54384;SDS011;40284;52.878;5.998;2023-03-23T00:52:43;16.55;;;9.98;;
54384;SDS011;40284;52.878;5.998;2023-03-23T00:55:09;14.50;;;9.05;;
54384;SDS011;40284;52.878;5.998;2023-03-23T00:57:35;17.77;;;9.10;;
54384;SDS011;40284;52.878;5.998;2023-03-23T01:00:02;15.10;;;8.57;;
54384;SDS011;40284;52.878;5.998;2023-03-23T01:02:34;10.38;;;7.82;;
54384;SDS011;40284;52.878;5.998;2023-03-23T01:05:00;15.10;;;8.27;;
54384;SDS011;40284;52.878;5.998;2023-03-23T01:07:28;15.43;;;8.15;;
54384;SDS011;40284;52.878;5.998;2023-03-23T01:09:56;12.15;;;7.20;;
54384;SDS011;40284;52.878;5.998;2023-03-23T01:12:22;9.38;;;7.38;;
54384;SDS011;40284;52.878;5.998;2023-03-23T01:14:50;11.65;;;7.25;;
54384;SDS011;40284;52.878;5.998;2023-03-23T01:17:16;10.60;;;7.45;;
54384;SDS011;40284;52.878;5.998;2023-03-23T01:19:43;9.38;;;7.05;;
54384;SDS011;40284;52.878;5.998;2023-03-23T01:22:10;11.32;;;7.43;;
54384;SDS011;40284;52.878;5.998;2023-03-23T01:24:36;12.23;;;7.28;;
54384;SDS011;40284;52.878;5.998;2023-03-23T01:27:02;10.25;;;6.63;;
54384;SDS011;40284;52.878;5.998;2023-03-23T01:29:32;11.75;;;7.60;;
54384;SDS011;40284;52.878;5.998;2023-03-23T01:31:58;11.93;;;7.10;;
54384;SDS011;40284;52.878;5.998;2023-03-23T01:34:25;15.68;;;6.70;;
54384;SDS011;40284;52.878;5.998;2023-03-23T01:36:51;11.38;;;7.43;;
54384;SDS011;40284;52.878;5.998;2023-03-23T01:39:17;11.10;;;6.38;;
54384;SDS011;40284;52.878;5.998;2023-03-23T01:41:43;14.18;;;6.60;;
54384;SDS011;40284;52.878;5.998;2023-03-23T01:46:38;9.77;;;6.35;;
54384;SDS011;40284;52.878;5.998;2023-03-23T01:49:09;10.27;;;6.18;;
54384;SDS011;40284;52.878;5.998;2023-03-23T01:51:37;10.43;;;5.93;;
54384;SDS011;40284;52.878;5.998;2023-03-23T01:54:06;13.02;;;6.65;;
54384;SDS011;40284;52.878;5.998;2023-03-23T01:56:35;11.63;;;6.50;;
54384;SDS011;40284;52.878;5.998;2023-03-23T01:59:03;9.63;;;6.15;;
54384;SDS011;40284;52.878;5.998;2023-03-23T02:01:30;9.13;;;6.03;;
54384;SDS011;40284;52.878;5.998;2023-03-23T02:04:02;10.80;;;6.28;;
54384;SDS011;40284;52.878;5.998;2023-03-23T02:06:28;13.93;;;6.57;;
54384;SDS011;40284;52.878;5.998;2023-03-23T02:08:54;11.77;;;6.38;;
54384;SDS011;40284;52.878;5.998;2023-03-23T02:11:22;10.63;;;6.30;;
54384;SDS011;40284;52.878;5.998;2023-03-23T02:13:48;12.50;;;5.63;;
54384;SDS011;40284;52.878;5.998;2023-03-23T02:26:25;11.25;;;6.30;;
54384;SDS011;40284;52.878;5.998;2023-03-23T02:35:08;8.77;;;6.20;;
54384;SDS011;40284;52.878;5.998;2023-03-23T02:37:04;13.23;;;5.90;;
54384;SDS011;40284;52.878;5.998;2023-03-23T02:39:34;11.93;;;5.35;;
54384;SDS011;40284;52.878;5.998;2023-03-23T02:42:02;9.13;;;4.88;;
54384;SDS011;40284;52.878;5.998;2023-03-23T02:44:30;7.45;;;5.15;;
54384;SDS011;40284;52.878;5.998;2023-03-23T02:46:57;9.43;;;5.22;;
54384;SDS011;40284;52.878;5.998;2023-03-23T02:49:25;11.85;;;5.18;;
54384;SDS011;40284;52.878;5.998;2023-03-23T02:51:52;11.48;;;5.15;;
54384;SDS011;40284;52.878;5.998;2023-03-23T02:54:19;7.18;;;4.30;;
54384;SDS011;40284;52.878;5.998;2023-03-23T02:56:47;9.80;;;4.68;;
54384;SDS011;40284;52.878;5.998;2023-03-23T02:59:15;8.00;;;4.47;;
54384;SDS011;40284;52.878;5.998;2023-03-23T03:04:14;12.95;;;5.43;;
54384;SDS011;40284;52.878;5.998;2023-03-23T03:06:49;9.23;;;4.47;;
54384;SDS011;40284;52.878;5.998;2023-03-23T03:11:47;9.88;;;4.70;;
54384;SDS011;40284;52.878;5.998;2023-03-23T03:14:16;8.88;;;5.07;;
54384;SDS011;40284;52.878;5.998;2023-03-23T03:16:46;8.93;;;4.37;;
54384;SDS011;40284;52.878;5.998;2023-03-23T03:19:16;8.55;;;4.78;;
54384;SDS011;40284;52.878;5.998;2023-03-23T03:21:44;8.00;;;4.45;;
54384;SDS011;40284;52.878;5.998;2023-03-23T03:24:12;9.27;;;4.57;;
54384;SDS011;40284;52.878;5.998;2023-03-23T03:26:40;9.73;;;4.78;;
54384;SDS011;40284;52.878;5.998;2023-03-23T03:29:13;12.20;;;6.22;;
54384;SDS011;40284;52.878;5.998;2023-03-23T03:31:39;8.70;;;4.80;;
54384;SDS011;40284;52.878;5.998;2023-03-23T03:34:10;12.00;;;5.00;;
54384;SDS011;40284;52.878;5.998;2023-03-23T03:36:37;8.70;;;5.32;;
54384;SDS011;40284;52.878;5.998;2023-03-23T03:39:04;8.77;;;5.97;;
54384;SDS011;40284;52.878;5.998;2023-03-23T03:41:32;8.02;;;5.20;;
54384;SDS011;40284;52.878;5.998;2023-03-23T03:43:58;9.52;;;4.50;;
54384;SDS011;40284;52.878;5.998;2023-03-23T03:46:25;9.25;;;4.55;;
54384;SDS011;40284;52.878;5.998;2023-03-23T03:48:54;7.30;;;4.60;;
54384;SDS011;40284;52.878;5.998;2023-03-23T03:51:21;6.93;;;4.60;;
54384;SDS011;40284;52.878;5.998;2023-03-23T03:53:48;8.73;;;4.25;;
54384;SDS011;40284;52.878;5.998;2023-03-23T03:56:14;10.65;;;4.15;;
54384;SDS011;40284;52.878;5.998;2023-03-23T03:58:40;6.53;;;4.28;;
54384;SDS011;40284;52.878;5.998;2023-03-23T04:01:08;7.30;;;4.47;;
54384;SDS011;40284;52.878;5.998;2023-03-23T04:03:35;6.85;;;3.95;;
54384;SDS011;40284;52.878;5.998;2023-03-23T04:06:02;7.72;;;3.92;;
54384;SDS011;40284;52.878;5.998;2023-03-23T04:08:28;8.35;;;4.38;;
54384;SDS011;40284;52.878;5.998;2023-03-23T04:10:54;6.35;;;4.00;;
54384;SDS011;40284;52.878;5.998;2023-03-23T04:13:21;11.30;;;5.00;;
54384;SDS011;40284;52.878;5.998;2023-03-23T04:15:47;7.93;;;4.00;;
54384;SDS011;40284;52.878;5.998;2023-03-23T04:18:13;8.68;;;4.25;;
54384;SDS011;40284;52.878;5.998;2023-03-23T04:20:42;12.18;;;3.80;;
54384;SDS011;40284;52.878;5.998;2023-03-23T04:23:09;9.30;;;3.90;;
54384;SDS011;40284;52.878;5.998;2023-03-23T04:25:35;7.07;;;3.45;;
54384;SDS011;40284;52.878;5.998;2023-03-23T04:28:01;9.90;;;4.10;;
54384;SDS011;40284;52.878;5.998;2023-03-23T04:30:28;12.18;;;4.38;;
54384;SDS011;40284;52.878;5.998;2023-03-23T04:32:56;12.35;;;3.35;;
54384;SDS011;40284;52.878;5.998;2023-03-23T04:35:24;13.02;;;3.50;;
54384;SDS011;40284;52.878;5.998;2023-03-23T04:37:51;8.75;;;2.97;;
54384;SDS011;40284;52.878;5.998;2023-03-23T04:40:18;7.07;;;2.85;;
54384;SDS011;40284;52.878;5.998;2023-03-23T04:42:44;8.45;;;2.50;;
54384;SDS011;40284;52.878;5.998;2023-03-23T04:45:11;10.13;;;2.72;;
54384;SDS011;40284;52.878;5.998;2023-03-23T04:47:39;8.88;;;2.65;;
54384;SDS011;40284;52.878;5.998;2023-03-23T04:50:09;7.03;;;2.28;;
54384;SDS011;40284;52.878;5.998;2023-03-23T04:52:37;8.77;;;2.67;;
54384;SDS011;40284;52.878;5.998;2023-03-23T04:55:05;11.70;;;2.90;;
54384;SDS011;40284;52.878;5.998;2023-03-23T04:57:32;13.13;;;2.88;;
54384;SDS011;40284;52.878;5.998;2023-03-23T04:59:59;17.80;;;3.75;;
54384;SDS011;40284;52.878;5.998;2023-03-23T05:02:25;11.57;;;2.95;;
54384;SDS011;40284;52.878;5.998;2023-03-23T05:04:55;12.07;;;3.60;;
54384;SDS011;40284;52.878;5.998;2023-03-23T05:07:22;13.77;;;3.03;;
54384;SDS011;40284;52.878;5.998;2023-03-23T05:09:48;16.20;;;4.60;;
54384;SDS011;40284;52.878;5.998;2023-03-23T05:12:14;16.23;;;3.25;;
54384;SDS011;40284;52.878;5.998;2023-03-23T05:14:41;16.40;;;3.72;;
54384;SDS011;40284;52.878;5.998;2023-03-23T05:17:08;21.80;;;3.80;;
54384;SDS011;40284;52.878;5.998;2023-03-23T05:19:34;14.25;;;4.53;;
54384;SDS011;40284;52.878;5.998;2023-03-23T05:22:01;19.05;;;4.75;;
54384;SDS011;40284;52.878;5.998;2023-03-23T05:24:28;21.92;;;4.00;;
54384;SDS011;40284;52.878;5.998;2023-03-23T05:26:56;14.85;;;3.45;;
54384;SDS011;40284;52.878;5.998;2023-03-23T05:29:22;14.88;;;3.63;;
54384;SDS011;40284;52.878;5.998;2023-03-23T05:31:49;17.23;;;4.07;;
54384;SDS011;40284;52.878;5.998;2023-03-23T05:34:15;18.17;;;4.05;;
54384;SDS011;40284;52.878;5.998;2023-03-23T05:36:41;12.30;;;3.17;;
54384;SDS011;40284;52.878;5.998;2023-03-23T05:39:09;17.77;;;4.35;;
54384;SDS011;40284;52.878;5.998;2023-03-23T05:41:36;14.90;;;3.80;;
54384;SDS011;40284;52.878;5.998;2023-03-23T05:44:02;17.92;;;3.88;;
54384;SDS011;40284;52.878;5.998;2023-03-23T05:46:29;22.83;;;5.22;;
54384;SDS011;40284;52.878;5.998;2023-03-23T05:48:55;18.17;;;3.50;;
54384;SDS011;40284;52.878;5.998;2023-03-23T05:51:21;12.10;;;3.47;;
54384;SDS011;40284;52.878;5.998;2023-03-23T05:53:47;15.15;;;3.63;;
54384;SDS011;40284;52.878;5.998;2023-03-23T05:56:13;21.92;;;6.90;;
54384;SDS011;40284;52.878;5.998;2023-03-23T05:58:40;16.05;;;4.32;;
54384;SDS011;40284;52.878;5.998;2023-03-23T06:01:06;18.55;;;3.72;;
54384;SDS011;40284;52.878;5.998;2023-03-23T06:03:33;19.15;;;3.33;;
54384;SDS011;40284;52.878;5.998;2023-03-23T06:06:01;13.90;;;3.75;;
54384;SDS011;40284;52.878;5.998;2023-03-23T06:08:28;14.63;;;3.47;;
54384;SDS011;40284;52.878;5.998;2023-03-23T06:10:54;18.77;;;4.82;;
54384;SDS011;40284;52.878;5.998;2023-03-23T06:13:20;16.23;;;4.40;;
54384;SDS011;40284;52.878;5.998;2023-03-23T06:15:46;20.33;;;4.13;;
54384;SDS011;40284;52.878;5.998;2023-03-23T06:18:13;22.80;;;4.00;;
54384;SDS011;40284;52.878;5.998;2023-03-23T06:20:39;15.23;;;3.65;;
54384;SDS011;40284;52.878;5.998;2023-03-23T06:23:07;24.45;;;4.85;;
54384;SDS011;40284;52.878;5.998;2023-03-23T06:25:34;21.58;;;5.28;;
54384;SDS011;40284;52.878;5.998;2023-03-23T06:28:00;23.83;;;4.82;;
54384;SDS011;40284;52.878;5.998;2023-03-23T06:30:26;21.65;;;4.10;;
54384;SDS011;40284;52.878;5.998;2023-03-23T06:32:53;21.80;;;5.10;;
54384;SDS011;40284;52.878;5.998;2023-03-23T06:35:20;23.33;;;5.40;;
54384;SDS011;40284;52.878;5.998;2023-03-23T06:37:46;24.00;;;4.72;;
54384;SDS011;40284;52.878;5.998;2023-03-23T06:40:13;27.15;;;6.05;;
54384;SDS011;40284;52.878;5.998;2023-03-23T06:42:39;28.15;;;5.25;;
54384;SDS011;40284;52.878;5.998;2023-03-23T06:45:05;18.17;;;5.00;;
54384;SDS011;40284;52.878;5.998;2023-03-23T06:47:32;30.80;;;5.15;;
54384;SDS011;40284;52.878;5.998;2023-03-23T06:49:58;23.90;;;5.70;;
54384;SDS011;40284;52.878;5.998;2023-03-23T06:52:25;17.85;;;4.22;;
54384;SDS011;40284;52.878;5.998;2023-03-23T06:54:51;20.00;;;4.05;;
54384;SDS011;40284;52.878;5.998;2023-03-23T06:57:18;26.42;;;6.40;;
54384;SDS011;40284;52.878;5.998;2023-03-23T06:59:44;20.15;;;4.43;;
54384;SDS011;40284;52.878;5.998;2023-03-23T07:02:11;25.33;;;5.03;;
54384;SDS011;40284;52.878;5.998;2023-03-23T07:04:37;29.33;;;5.78;;
54384;SDS011;40284;52.878;5.998;2023-03-23T07:07:04;22.67;;;4.28;;
54384;SDS011;40284;52.878;5.998;2023-03-23T07:09:32;20.52;;;4.30;;
54384;SDS011;40284;52.878;5.998;2023-03-23T07:11:58;20.73;;;3.92;;
54384;SDS011;40284;52.878;5.998;2023-03-23T07:14:24;39.65;;;7.35;;
54384;SDS011;40284;52.878;5.998;2023-03-23T07:16:51;25.42;;;4.50;;
54384;SDS011;40284;52.878;5.998;2023-03-23T07:19:18;27.73;;;5.45;;
54384;SDS011;40284;52.878;5.998;2023-03-23T07:21:44;23.42;;;5.93;;
54384;SDS011;40284;52.878;5.998;2023-03-23T07:24:11;25.70;;;5.07;;
54384;SDS011;40284;52.878;5.998;2023-03-23T07:26:41;26.13;;;4.75;;
54384;SDS011;40284;52.878;5.998;2023-03-23T07:29:08;21.88;;;5.22;;
54384;SDS011;40284;52.878;5.998;2023-03-23T07:31:34;26.75;;;4.78;;
54384;SDS011;40284;52.878;5.998;2023-03-23T07:34:01;36.40;;;7.40;;
54384;SDS011;40284;52.878;5.998;2023-03-23T07:36:28;23.15;;;4.97;;
54384;SDS011;40284;52.878;5.998;2023-03-23T07:38:54;32.90;;;5.45;;
54384;SDS011;40284;52.878;5.998;2023-03-23T07:41:21;25.75;;;5.72;;
54384;SDS011;40284;52.878;5.998;2023-03-23T07:43:47;26.35;;;5.60;;
54384;SDS011;40284;52.878;5.998;2023-03-23T07:46:13;31.15;;;6.60;;
54384;SDS011;40284;52.878;5.998;2023-03-23T07:48:39;24.27;;;5.40;;
54384;SDS011;40284;52.878;5.998;2023-03-23T07:51:06;28.35;;;5.82;;
54384;SDS011;40284;52.878;5.998;2023-03-23T07:53:33;28.58;;;6.72;;
54384;SDS011;40284;52.878;5.998;2023-03-23T07:55:59;28.25;;;5.57;;
54384;SDS011;40284;52.878;5.998;2023-03-23T07:58:27;24.77;;;5.63;;
54384;SDS011;40284;52.878;5.998;2023-03-23T08:00:53;29.65;;;7.28;;
54384;SDS011;40284;52.878;5.998;2023-03-23T08:03:22;33.08;;;5.00;;
54384;SDS011;40284;52.878;5.998;2023-03-23T08:05:49;29.45;;;5.60;;
54384;SDS011;40284;52.878;5.998;2023-03-23T08:08:15;27.92;;;5.53;;
54384;SDS011;40284;52.878;5.998;2023-03-23T08:10:41;40.88;;;11.05;;
54384;SDS011;40284;52.878;5.998;2023-03-23T08:13:07;31.10;;;7.70;;
54384;SDS011;40284;52.878;5.998;2023-03-23T08:15:33;43.50;;;7.70;;
54384;SDS011;40284;52.878;5.998;2023-03-23T08:18:02;35.63;;;6.95;;
54384;SDS011;40284;52.878;5.998;2023-03-23T08:20:28;33.25;;;7.00;;
54384;SDS011;40284;52.878;5.998;2023-03-23T08:22:55;35.95;;;8.32;;
54384;SDS011;40284;52.878;5.998;2023-03-23T08:25:22;35.15;;;8.48;;
54384;SDS011;40284;52.878;5.998;2023-03-23T08:27:49;30.00;;;8.10;;
54384;SDS011;40284;52.878;5.998;2023-03-23T08:30:16;41.88;;;11.32;;
54384;SDS011;40284;52.878;5.998;2023-03-23T08:32:42;43.55;;;11.77;;
54384;SDS011;40284;52.878;5.998;2023-03-23T08:35:09;34.30;;;9.10;;
54384;SDS011;40284;52.878;5.998;2023-03-23T08:37:36;35.78;;;9.30;;
54384;SDS011;40284;52.878;5.998;2023-03-23T08:40:03;27.88;;;8.13;;
54384;SDS011;40284;52.878;5.998;2023-03-23T08:42:34;36.30;;;9.90;;
54384;SDS011;40284;52.878;5.998;2023-03-23T08:45:01;30.95;;;9.80;;
54384;SDS011;40284;52.878;5.998;2023-03-23T08:47:28;33.65;;;7.95;;
54384;SDS011;40284;52.878;5.998;2023-03-23T08:49:54;23.85;;;5.68;;
54384;SDS011;40284;52.878;5.998;2023-03-23T08:52:20;35.67;;;8.35;;
54384;SDS011;40284;52.878;5.998;2023-03-23T08:54:46;30.15;;;5.65;;
54384;SDS011;40284;52.878;5.998;2023-03-23T08:57:13;29.85;;;6.45;;
54384;SDS011;40284;52.878;5.998;2023-03-23T08:59:41;33.55;;;7.38;;
54384;SDS011;40284;52.878;5.998;2023-03-23T09:02:09;27.67;;;6.75;;
54384;SDS011;40284;52.878;5.998;2023-03-23T09:04:37;31.98;;;6.57;;
54384;SDS011;40284;52.878;5.998;2023-03-23T09:07:04;32.25;;;6.68;;
54384;SDS011;40284;52.878;5.998;2023-03-23T09:09:31;30.35;;;5.63;;
54384;SDS011;40284;52.878;5.998;2023-03-23T09:11:59;32.00;;;6.57;;
54384;SDS011;40284;52.878;5.998;2023-03-23T09:14:25;31.42;;;6.03;;
54384;SDS011;40284;52.878;5.998;2023-03-23T09:16:52;26.52;;;6.65;;
54384;SDS011;40284;52.878;5.998;2023-03-23T09:19:18;20.42;;;6.30;;
54384;SDS011;40284;52.878;5.998;2023-03-23T09:21:45;28.45;;;6.25;;
54384;SDS011;40284;52.878;5.998;2023-03-23T09:24:11;30.17;;;11.00;;
54384;SDS011;40284;52.878;5.998;2023-03-23T09:26:38;31.27;;;5.90;;
54384;SDS011;40284;52.878;5.998;2023-03-23T09:29:04;23.25;;;5.53;;
54384;SDS011;40284;52.878;5.998;2023-03-23T09:31:30;24.98;;;4.90;;
54384;SDS011;40284;52.878;5.998;2023-03-23T09:33:57;25.38;;;5.50;;
54384;SDS011;40284;52.878;5.998;2023-03-23T09:36:24;24.52;;;5.57;;
54384;SDS011;40284;52.878;5.998;2023-03-23T09:38:51;37.35;;;6.35;;
54384;SDS011;40284;52.878;5.998;2023-03-23T09:46:49;24.42;;;5.97;;
54384;SDS011;40284;52.878;5.998;2023-03-23T09:49:20;23.08;;;5.53;;
54384;SDS011;40284;52.878;5.998;2023-03-23T09:51:50;28.63;;;6.85;;
54384;SDS011;40284;52.878;5.998;2023-03-23T09:54:20;27.02;;;6.10;;
54384;SDS011;40284;52.878;5.998;2023-03-23T09:56:48;23.02;;;5.47;;
54384;SDS011;40284;52.878;5.998;2023-03-23T09:59:34;27.48;;;7.15;;
54384;SDS011;40284;52.878;5.998;2023-03-23T10:07:14;27.27;;;8.10;;
54384;SDS011;40284;52.878;5.998;2023-03-23T10:09:45;35.78;;;10.00;;
54384;SDS011;40284;52.878;5.998;2023-03-23T10:15:16;28.15;;;6.90;;
54384;SDS011;40284;52.878;5.998;2023-03-23T10:17:49;22.30;;;6.97;;
54384;SDS011;40284;52.878;5.998;2023-03-23T10:22:51;31.17;;;7.50;;
54384;SDS011;40284;52.878;5.998;2023-03-23T10:25:19;20.40;;;6.00;;
54384;SDS011;40284;52.878;5.998;2023-03-23T10:27:53;23.55;;;6.03;;
54384;SDS011;40284;52.878;5.998;2023-03-23T10:30:42;20.52;;;5.03;;
54384;SDS011;40284;52.878;5.998;2023-03-23T10:33:11;18.08;;;5.05;;
54384;SDS011;40284;52.878;5.998;2023-03-23T10:35:44;19.73;;;5.20;;
54384;SDS011;40284;52.878;5.998;2023-03-23T10:38:19;23.88;;;5.25;;
54384;SDS011;40284;52.878;5.998;2023-03-23T10:40:54;19.45;;;4.88;;
54384;SDS011;40284;52.878;5.998;2023-03-23T10:43:21;18.83;;;5.28;;
54384;SDS011;40284;52.878;5.998;2023-03-23T10:45:51;16.02;;;4.65;;
54384;SDS011;40284;52.878;5.998;2023-03-23T10:48:28;14.75;;;4.35;;
54384;SDS011;40284;52.878;5.998;2023-03-23T10:50:57;21.25;;;4.13;;
54384;SDS011;40284;52.878;5.998;2023-03-23T10:53:58;22.45;;;4.40;;
54384;SDS011;40284;52.878;5.998;2023-03-23T10:58:53;22.65;;;4.03;;
54384;SDS011;40284;52.878;5.998;2023-03-23T11:01:20;17.75;;;3.70;;
54384;SDS011;40284;52.878;5.998;2023-03-23T11:03:53;20.92;;;4.95;;
54384;SDS011;40284;52.878;5.998;2023-03-23T11:06:22;18.77;;;4.32;;
54384;SDS011;40284;52.878;5.998;2023-03-23T11:11:18;21.75;;;5.35;;
54384;SDS011;40284;52.878;5.998;2023-03-23T11:13:47;22.17;;;4.93;;
54384;SDS011;40284;52.878;5.998;2023-03-23T11:16:30;15.80;;;3.50;;
54384;SDS011;40284;52.878;5.998;2023-03-23T11:18:57;15.98;;;4.05;;
54384;SDS011;40284;52.878;5.998;2023-03-23T11:21:23;16.35;;;3.50;;
54384;SDS011;40284;52.878;5.998;2023-03-23T11:23:51;18.88;;;3.63;;
54384;SDS011;40284;52.878;5.998;2023-03-23T11:26:22;15.10;;;3.80;;
54384;SDS011;40284;52.878;5.998;2023-03-23T11:28:53;19.90;;;5.15;;
54384;SDS011;40284;52.878;5.998;2023-03-23T11:31:21;15.02;;;3.35;;
54384;SDS011;40284;52.878;5.998;2023-03-23T11:36:47;18.52;;;4.57;;
54384;SDS011;40284;52.878;5.998;2023-03-23T11:39:24;23.10;;;4.05;;
54384;SDS011;40284;52.878;5.998;2023-03-23T11:41:51;19.80;;;4.88;;
54384;SDS011;40284;52.878;5.998;2023-03-23T11:44:17;18.00;;;4.20;;
54384;SDS011;40284;52.878;5.998;2023-03-23T11:46:53;18.65;;;4.22;;
54384;SDS011;40284;52.878;5.998;2023-03-23T11:52:21;16.48;;;4.47;;
54384;SDS011;40284;52.878;5.998;2023-03-23T11:54:57;15.52;;;4.13;;
54384;SDS011;40284;52.878;5.998;2023-03-23T11:57:27;12.65;;;3.60;;
54384;SDS011;40284;52.878;5.998;2023-03-23T11:59:55;20.92;;;4.97;;
54384;SDS011;40284;52.878;5.998;2023-03-23T12:15:25;19.48;;;5.07;;
54384;SDS011;40284;52.878;5.998;2023-03-23T12:18:07;17.40;;;3.95;;
54384;SDS011;40284;52.878;5.998;2023-03-23T12:41:34;17.40;;;4.53;;
54384;SDS011;40284;52.878;5.998;2023-03-23T12:44:06;15.88;;;4.75;;
54384;SDS011;40284;52.878;5.998;2023-03-23T12:51:38;19.42;;;4.55;;
54384;SDS011;40284;52.878;5.998;2023-03-23T12:54:15;17.13;;;4.13;;
54384;SDS011;40284;52.878;5.998;2023-03-23T12:56:45;14.38;;;4.57;;
54384;SDS011;40284;52.878;5.998;2023-03-23T13:04:44;23.92;;;4.88;;
54384;SDS011;40284;52.878;5.998;2023-03-23T13:07:12;19.58;;;5.78;;
54384;SDS011;40284;52.878;5.998;2023-03-23T13:09:48;21.42;;;4.80;;
54384;SDS011;40284;52.878;5.998;2023-03-23T13:12:16;17.95;;;4.40;;
54384;SDS011;40284;52.878;5.998;2023-03-23T13:14:47;17.88;;;4.35;;
54384;SDS011;40284;52.878;5.998;2023-03-23T13:22:43;16.42;;;4.00;;
54384;SDS011;40284;52.878;5.998;2023-03-23T13:25:17;19.42;;;4.53;;
54384;SDS011;40284;52.878;5.998;2023-03-23T13:27:55;14.05;;;3.92;;
54384;SDS011;40284;52.878;5.998;2023-03-23T13:30:21;17.40;;;5.07;;
54384;SDS011;40284;52.878;5.998;2023-03-23T13:32:48;20.27;;;4.43;;
54384;SDS011;40284;52.878;5.998;2023-03-23T13:35:16;16.42;;;4.15;;
54384;SDS011;40284;52.878;5.998;2023-03-23T13:37:46;12.13;;;3.38;;
54384;SDS011;40284;52.878;5.998;2023-03-23T13:40:15;17.67;;;5.40;;
54384;SDS011;40284;52.878;5.998;2023-03-23T13:42:48;15.48;;;4.20;;
54384;SDS011;40284;52.878;5.998;2023-03-23T13:50:30;14.45;;;3.97;;
54384;SDS011;40284;52.878;5.998;2023-03-23T13:52:58;17.13;;;3.80;;
54384;SDS011;40284;52.878;5.998;2023-03-23T13:57:55;17.23;;;3.85;;
54384;SDS011;40284;52.878;5.998;2023-03-23T14:02:58;12.32;;;3.63;;
54384;SDS011;40284;52.878;5.998;2023-03-23T14:05:32;17.77;;;4.68;;
54384;SDS011;40284;52.878;5.998;2023-03-23T14:10:39;15.65;;;3.75;;
54384;SDS011;40284;52.878;5.998;2023-03-23T14:18:41;16.55;;;3.40;;
54384;SDS011;40284;52.878;5.998;2023-03-23T14:21:15;16.77;;;4.70;;
54384;SDS011;40284;52.878;5.998;2023-03-23T14:23:42;12.93;;;4.10;;
54384;SDS011;40284;52.878;5.998;2023-03-23T14:26:12;12.52;;;3.08;;
54384;SDS011;40284;52.878;5.998;2023-03-23T14:28:40;17.73;;;3.85;;
54384;SDS011;40284;52.878;5.998;2023-03-23T14:31:14;14.77;;;3.33;;
54384;SDS011;40284;52.878;5.998;2023-03-23T14:33:42;16.20;;;3.45;;
54384;SDS011;40284;52.878;5.998;2023-03-23T14:36:08;13.35;;;3.63;;
54384;SDS011;40284;52.878;5.998;2023-03-23T14:38:34;12.32;;;3.17;;
54384;SDS011;40284;52.878;5.998;2023-03-23T14:41:01;13.77;;;3.65;;
54384;SDS011;40284;52.878;5.998;2023-03-23T14:43:27;16.02;;;4.60;;
54384;SDS011;40284;52.878;5.998;2023-03-23T14:45:55;16.42;;;4.60;;
54384;SDS011;40284;52.878;5.998;2023-03-23T14:48:22;19.92;;;5.90;;
54384;SDS011;40284;52.878;5.998;2023-03-23T14:50:50;12.82;;;3.88;;
54384;SDS011;40284;52.878;5.998;2023-03-23T14:53:18;13.05;;;4.43;;
54384;SDS011;40284;52.878;5.998;2023-03-23T14:55:46;15.70;;;4.43;;
54384;SDS011;40284;52.878;5.998;2023-03-23T14:58:13;16.08;;;4.85;;
54384;SDS011;40284;52.878;5.998;2023-03-23T15:00:46;15.73;;;4.20;;
54384;SDS011;40284;52.878;5.998;2023-03-23T15:03:14;16.48;;;4.68;;
54384;SDS011;40284;52.878;5.998;2023-03-23T15:05:42;16.17;;;4.22;;
54384;SDS011;40284;52.878;5.998;2023-03-23T15:08:12;15.50;;;4.18;;
54384;SDS011;40284;52.878;5.998;2023-03-23T15:10:39;9.45;;;3.00;;
54384;SDS011;40284;52.878;5.998;2023-03-23T15:13:08;20.88;;;3.65;;
54384;SDS011;40284;52.878;5.998;2023-03-23T15:15:35;16.55;;;3.45;;
54384;SDS011;40284;52.878;5.998;2023-03-23T15:18:02;16.17;;;4.38;;
54384;SDS011;40284;52.878;5.998;2023-03-23T15:20:30;13.65;;;3.97;;
54384;SDS011;40284;52.878;5.998;2023-03-23T15:23:04;18.02;;;5.25;;
54384;SDS011;40284;52.878;5.998;2023-03-23T15:25:32;15.25;;;3.80;;
54384;SDS011;40284;52.878;5.998;2023-03-23T15:28:07;21.50;;;4.57;;
54384;SDS011;40284;52.878;5.998;2023-03-23T15:30:45;14.85;;;5.10;;
54384;SDS011;40284;52.878;5.998;2023-03-23T15:33:12;18.58;;;4.90;;
54384;SDS011;40284;52.878;5.998;2023-03-23T15:35:48;18.30;;;4.70;;
54384;SDS011;40284;52.878;5.998;2023-03-23T15:40:42;20.75;;;5.18;;
54384;SDS011;40284;52.878;5.998;2023-03-23T15:43:20;22.65;;;7.47;;
54384;SDS011;40284;52.878;5.998;2023-03-23T15:48:19;13.30;;;3.83;;
54384;SDS011;40284;52.878;5.998;2023-03-23T15:50:46;13.63;;;4.03;;
54384;SDS011;40284;52.878;5.998;2023-03-23T15:53:22;12.13;;;3.70;;
54384;SDS011;40284;52.878;5.998;2023-03-23T15:55:48;17.38;;;4.05;;
54384;SDS011;40284;52.878;5.998;2023-03-23T15:58:14;16.50;;;3.58;;
54384;SDS011;40284;52.878;5.998;2023-03-23T16:00:41;12.88;;;3.53;;
54384;SDS011;40284;52.878;5.998;2023-03-23T16:03:10;15.05;;;3.72;;
54384;SDS011;40284;52.878;5.998;2023-03-23T16:05:37;15.30;;;3.72;;
54384;SDS011;40284;52.878;5.998;2023-03-23T16:08:03;13.50;;;3.67;;
54384;SDS011;40284;52.878;5.998;2023-03-23T16:10:30;18.52;;;4.68;;
54384;SDS011;40284;52.878;5.998;2023-03-23T16:12:56;17.25;;;3.92;;
54384;SDS011;40284;52.878;5.998;2023-03-23T16:15:22;20.00;;;4.50;;
54384;SDS011;40284;52.878;5.998;2023-03-23T16:17:48;23.23;;;4.63;;
54384;SDS011;40284;52.878;5.998;2023-03-23T16:20:18;18.25;;;5.47;;
54384;SDS011;40284;52.878;5.998;2023-03-23T16:22:45;15.50;;;4.03;;
54384;SDS011;40284;52.878;5.998;2023-03-23T16:25:12;22.65;;;3.83;;
54384;SDS011;40284;52.878;5.998;2023-03-23T16:27:38;18.35;;;4.50;;
54384;SDS011;40284;52.878;5.998;2023-03-23T16:30:27;13.82;;;3.55;;
54384;SDS011;40284;52.878;5.998;2023-03-23T16:32:51;16.67;;;3.85;;
54384;SDS011;40284;52.878;5.998;2023-03-23T16:35:18;13.27;;;3.88;;
54384;SDS011;40284;52.878;5.998;2023-03-23T16:37:45;17.08;;;3.72;;
54384;SDS011;40284;52.878;5.998;2023-03-23T16:40:12;18.02;;;3.92;;
54384;SDS011;40284;52.878;5.998;2023-03-23T16:42:39;15.38;;;3.78;;
54384;SDS011;40284;52.878;5.998;2023-03-23T16:45:05;17.92;;;4.05;;